Terminal Aerodrome Forecast
Issued by NWS Billings, MT

Home | Current Version | Previous Version | Text Only | Print | Product List | Glossary On
Versions: 1 2 3 4 5 6 7 8 9 10 11 12 13 14 15 16 17 18 19 20 21 22 23 24 25 26 27 28 29 30 31 32 33 34 35
000
FTUS45 KBYZ 291348 AAC
TAFSHR
TAF AMD
KSHR 291348Z 2914/3012 36010KT 2SM BR OVC004
      TEMPO 2914/2916 4SM -RA BR BKN005 OVC015
     FM291600 34008KT P6SM VCSH SCT008 OVC012
     FM291800 02007KT P6SM SCT015 OVC025
     FM292000 05007KT P6SM BKN035
     FM292200 15006KT P6SM SCT050=

USA.gov is the U.S. government's official web portal to all federal, state and local government web resources and services.